sensor_id;sensor_type;location;lat;lon;timestamp;P1;P4;P2;P0;N10;N4;N25;N1;N05;TS
84733;SPS30;74957;48.082;17.260;2023-12-20T00:01:08;45.772;;40.687;31.848;;;;;;
84733;SPS30;74957;48.082;17.260;2023-12-20T00:06:00;51.156;;37.51;29.537;;;;;;
84733;SPS30;74957;48.082;17.260;2023-12-20T00:11:02;41.267;;36.682;31.656;;;;;;
84733;SPS30;74957;48.082;17.260;2023-12-20T00:15:58;45.228;;38.405;30.259;;;;;;
84733;SPS30;74957;48.082;17.260;2023-12-20T00:20:59;45.258;;40.23;33.991;;;;;;
84733;SPS30;74957;48.082;17.260;2023-12-20T00:26:00;48.426;;43.046;34.207;;;;;;
84733;SPS30;74957;48.082;17.260;2023-12-20T00:31:01;44.978;;38.155;28.622;;;;;;
84733;SPS30;74957;48.082;17.260;2023-12-20T00:36:03;55.35;;41.704;32.691;;;;;;
84733;SPS30;74957;48.082;17.260;2023-12-20T00:41:00;41.721;;37.086;27.9;;;;;;
84733;SPS30;74957;48.082;17.260;2023-12-20T00:46:01;57.182;;35.348;24.602;;;;;;
84733;SPS30;74957;48.082;17.260;2023-12-20T00:51:02;46.288;;41.145;31.439;;;;;;
84733;SPS30;74957;48.082;17.260;2023-12-20T00:56:01;46.179;;41.048;32.209;;;;;;
84733;SPS30;74957;48.082;17.260;2023-12-20T01:00:59;36.522;;32.464;28.478;;;;;;
84733;SPS30;74957;48.082;17.260;2023-12-20T01:06:01;42.377;;37.669;30.043;;;;;;
84733;SPS30;74957;48.082;17.260;2023-12-20T01:11:03;39.251;;34.89;27.611;;;;;;
84733;SPS30;74957;48.082;17.260;2023-12-20T01:16:01;35.66;;31.698;26.672;;;;;;
84733;SPS30;74957;48.082;17.260;2023-12-20T01:21:03;42.55;;37.823;32.45;;;;;;
84733;SPS30;74957;48.082;17.260;2023-12-20T01:26:00;44.189;;37.366;31.993;;;;;;
84733;SPS30;74957;48.082;17.260;2023-12-20T01:31:05;42.48;;37.76;28.574;;;;;;
84733;SPS30;74957;48.082;17.260;2023-12-20T01:36:04;38.688;;34.39;26.937;;;;;;
84733;SPS30;74957;48.082;17.260;2023-12-20T01:40:59;64.181;;30.066;26.6;;;;;;
84733;SPS30;74957;48.082;17.260;2023-12-20T01:46:06;43.906;;35.718;29.825;;;;;;
84733;SPS30;74957;48.082;17.260;2023-12-20T01:51:01;38.835;;34.52;28.454;;;;;;
84733;SPS30;74957;48.082;17.260;2023-12-20T01:55:59;46.196;;32.55;26.311;;;;;;
84733;SPS30;74957;48.082;17.260;2023-12-20T02:01:00;37.323;;33.176;26.07;;;;;;
84733;SPS30;74957;48.082;17.260;2023-12-20T02:05:58;34.501;;30.668;25.469;;;;;;
84733;SPS30;74957;48.082;17.260;2023-12-20T02:10:59;42.782;;38.029;31.27;;;;;;
84733;SPS30;74957;48.082;17.260;2023-12-20T02:15:59;37.144;;33.017;27.298;;;;;;
84733;SPS30;74957;48.082;17.260;2023-12-20T02:21:04;38.142;;33.904;27.491;;;;;;
84733;SPS30;74957;48.082;17.260;2023-12-20T02:26:03;40.442;;33.619;27.033;;;;;;
84733;SPS30;74957;48.082;17.260;2023-12-20T02:30:58;43.335;;38.52;31.414;;;;;;
84733;SPS30;74957;48.082;17.260;2023-12-20T02:36:01;66.846;;38.189;29.176;;;;;;
84733;SPS30;74957;48.082;17.260;2023-12-20T02:41:00;41.911;;35.088;27.635;;;;;;
84733;SPS30;74957;48.082;17.260;2023-12-20T02:46:04;42.16;;37.476;28.983;;;;;;
84733;SPS30;74957;48.082;17.260;2023-12-20T02:51:00;41.782;;37.14;28.647;;;;;;
84733;SPS30;74957;48.082;17.260;2023-12-20T02:56:02;36.018;;32.016;27.683;;;;;;
84733;SPS30;74957;48.082;17.260;2023-12-20T03:01:05;44.161;;35.973;26.094;;;;;;
84733;SPS30;74957;48.082;17.260;2023-12-20T03:06:06;39.826;;35.401;29.682;;;;;;
84733;SPS30;74957;48.082;17.260;2023-12-20T03:11:06;38.353;;31.53;25.637;;;;;;
84733;SPS30;74957;48.082;17.260;2023-12-20T03:16:08;45.302;;40.269;33.51;;;;;;
84733;SPS30;74957;48.082;17.260;2023-12-20T03:21:06;45.801;;38.978;30.139;;;;;;
84733;SPS30;74957;48.082;17.260;2023-12-20T03:26:07;45.75;;37.562;27.683;;;;;;
84733;SPS30;74957;48.082;17.260;2023-12-20T03:31:05;52.874;;40.365;30.139;;;;;;
84733;SPS30;74957;48.082;17.260;2023-12-20T03:36:06;64.898;;38.743;27.997;;;;;;
84733;SPS30;74957;48.082;17.260;2023-12-20T03:41:06;61.903;;38.704;28.478;;;;;;
84733;SPS30;74957;48.082;17.260;2023-12-20T03:46:07;52.745;;39.099;31.126;;;;;;
84733;SPS30;74957;48.082;17.260;2023-12-20T03:51:06;39.63;;35.227;29.681;;;;;;
84733;SPS30;74957;48.082;17.260;2023-12-20T03:56:07;44.895;;39.907;33.148;;;;;;
84733;SPS30;74957;48.082;17.260;2023-12-20T04:01:08;47.019;;40.196;28.237;;;;;;
84733;SPS30;74957;48.082;17.260;2023-12-20T04:06:07;40.201;;33.378;25.059;;;;;;
84733;SPS30;74957;48.082;17.260;2023-12-20T04:11:05;40.854;;36.315;27.996;;;;;;
84733;SPS30;74957;48.082;17.260;2023-12-20T04:16:02;38.184;;31.361;26.335;;;;;;
84733;SPS30;74957;48.082;17.260;2023-12-20T04:21:04;34.529;;30.693;26.36;;;;;;
84733;SPS30;74957;48.082;17.260;2023-12-20T04:26:01;40.611;;36.099;29.513;;;;;;
84733;SPS30;74957;48.082;17.260;2023-12-20T04:31:01;46.134;;32.488;25.902;;;;;;
84733;SPS30;74957;48.082;17.260;2023-12-20T04:36:01;49.38;;28.911;23.712;;;;;;
84733;SPS30;74957;48.082;17.260;2023-12-20T04:41:02;39.582;;35.184;29.465;;;;;;
84733;SPS30;74957;48.082;17.260;2023-12-20T04:46:02;55.427;;34.958;27.852;;;;;;
84733;SPS30;74957;48.082;17.260;2023-12-20T04:51:01;38.471;;34.197;27.611;;;;;;
84733;SPS30;74957;48.082;17.260;2023-12-20T04:56:00;42.431;;35.608;27.635;;;;;;
84733;SPS30;74957;48.082;17.260;2023-12-20T05:01:00;41.158;;36.585;27.226;;;;;;
84733;SPS30;74957;48.082;17.260;2023-12-20T05:06:04;34.463;;30.634;23.181;;;;;;
84733;SPS30;74957;48.082;17.260;2023-12-20T05:10:59;38.374;;34.111;27.178;;;;;;
84733;SPS30;74957;48.082;17.260;2023-12-20T05:15:59;38.494;;34.217;27.804;;;;;;
84733;SPS30;74957;48.082;17.260;2023-12-20T05:21:00;36.452;;32.402;25.469;;;;;;
84733;SPS30;74957;48.082;17.260;2023-12-20T05:25:59;36.712;;32.633;27.78;;;;;;
84733;SPS30;74957;48.082;17.260;2023-12-20T05:30:58;30.997;;27.553;23.567;;;;;;
84733;SPS30;74957;48.082;17.260;2023-12-20T05:36:03;29.041;;25.815;20.269;;;;;;
84733;SPS30;74957;48.082;17.260;2023-12-20T05:41:00;32.909;;29.253;23.88;;;;;;
84733;SPS30;74957;48.082;17.260;2023-12-20T05:46:02;38.477;;34.202;27.443;;;;;;
84733;SPS30;74957;48.082;17.260;2023-12-20T05:50:58;36.726;;29.903;25.397;;;;;;
84733;SPS30;74957;48.082;17.260;2023-12-20T05:56:04;40.665;;36.147;29.561;;;;;;
84733;SPS30;74957;48.082;17.260;2023-12-20T06:01:03;36.018;;32.016;26.817;;;;;;
84733;SPS30;74957;48.082;17.260;2023-12-20T06:05:59;36.743;;32.661;27.635;;;;;;
84733;SPS30;74957;48.082;17.260;2023-12-20T06:11:00;33.597;;29.864;25.878;;;;;;
84733;SPS30;74957;48.082;17.260;2023-12-20T06:16:04;39.196;;32.373;27.347;;;;;;
84733;SPS30;74957;48.082;17.260;2023-12-20T06:21:04;36.273;;32.243;25.83;;;;;;
84733;SPS30;74957;48.082;17.260;2023-12-20T06:26:01;36.006;;32.006;26.287;;;;;;
84733;SPS30;74957;48.082;17.260;2023-12-20T06:31:02;39.604;;35.204;28.791;;;;;;
84733;SPS30;74957;48.082;17.260;2023-12-20T06:36:01;40.779;;33.956;28.237;;;;;;
84733;SPS30;74957;48.082;17.260;2023-12-20T06:41:04;36.852;;32.758;26.865;;;;;;
84733;SPS30;74957;48.082;17.260;2023-12-20T06:46:00;35.107;;31.207;23.928;;;;;;
84733;SPS30;74957;48.082;17.260;2023-12-20T06:51:02;38.619;;34.328;28.262;;;;;;
84733;SPS30;74957;48.082;17.260;2023-12-20T06:56:04;56.342;;35.873;28.767;;;;;;
84733;SPS30;74957;48.082;17.260;2023-12-20T07:01:10;37.111;;32.988;25.709;;;;;;
84733;SPS30;74957;48.082;17.260;2023-12-20T07:06:03;37.085;;32.965;27.419;;;;;;
84733;SPS30;74957;48.082;17.260;2023-12-20T07:11:01;37.047;;32.931;28.598;;;;;;
84733;SPS30;74957;48.082;17.260;2023-12-20T07:16:04;32.479;;28.871;24.192;;;;;;
84733;SPS30;74957;48.082;17.260;2023-12-20T07:21:08;38.065;;33.836;28.983;;;;;;
84733;SPS30;74957;48.082;17.260;2023-12-20T07:26:08;33.802;;30.047;25.541;;;;;;
84733;SPS30;74957;48.082;17.260;2023-12-20T07:31:11;34.453;;30.625;25.252;;;;;;
84733;SPS30;74957;48.082;17.260;2023-12-20T07:36:10;43.314;;38.502;32.089;;;;;;
84733;SPS30;74957;48.082;17.260;2023-12-20T07:41:11;40.167;;35.704;29.465;;;;;;
84733;SPS30;74957;48.082;17.260;2023-12-20T07:46:11;41.802;;37.158;31.439;;;;;;
84733;SPS30;74957;48.082;17.260;2023-12-20T07:51:10;37.622;;33.442;28.936;;;;;;
84733;SPS30;74957;48.082;17.260;2023-12-20T07:56:14;34.538;;30.701;26.022;;;;;;
84733;SPS30;74957;48.082;17.260;2023-12-20T08:01:12;41.585;;36.965;31.246;;;;;;
84733;SPS30;74957;48.082;17.260;2023-12-20T08:06:12;38.39;;34.125;29.272;;;;;;
84733;SPS30;74957;48.082;17.260;2023-12-20T08:11:10;36.099;;32.088;27.755;;;;;;
84733;SPS30;74957;48.082;17.260;2023-12-20T08:16:11;44.024;;39.133;31.68;;;;;;
84733;SPS30;74957;48.082;17.260;2023-12-20T08:21:11;40.753;;32.565;27.539;;;;;;
84733;SPS30;74957;48.082;17.260;2023-12-20T08:26:12;34.708;;30.852;25.999;;;;;;
84733;SPS30;74957;48.082;17.260;2023-12-20T08:31:05;39.231;;34.872;30.019;;;;;;
84733;SPS30;74957;48.082;17.260;2023-12-20T08:36:06;43.373;;38.554;32.835;;;;;;
84733;SPS30;74957;48.082;17.260;2023-12-20T08:41:08;42.264;;37.568;32.715;;;;;;
84733;SPS30;74957;48.082;17.260;2023-12-20T08:46:04;40.195;;35.729;31.223;;;;;;
84733;SPS30;74957;48.082;17.260;2023-12-20T08:51:04;41.217;;36.638;31.439;;;;;;
84733;SPS30;74957;48.082;17.260;2023-12-20T08:56:05;39.371;;34.997;29.104;;;;;;
84733;SPS30;74957;48.082;17.260;2023-12-20T09:01:04;36.013;;32.012;26.986;;;;;;
84733;SPS30;74957;48.082;17.260;2023-12-20T09:06:02;43.368;;38.55;30.404;;;;;;
84733;SPS30;74957;48.082;17.260;2023-12-20T09:11:04;40.8;;36.267;30.548;;;;;;
84733;SPS30;74957;48.082;17.260;2023-12-20T09:16:04;42.626;;37.89;30.957;;;;;;
84733;SPS30;74957;48.082;17.260;2023-12-20T09:21:03;43.882;;39.007;32.594;;;;;;
84733;SPS30;74957;48.082;17.260;2023-12-20T09:26:03;36.05;;32.045;25.806;;;;;;
84733;SPS30;74957;48.082;17.260;2023-12-20T09:31:03;41.331;;36.739;30.5;;;;;;
84733;SPS30;74957;48.082;17.260;2023-12-20T09:36:03;34.068;;30.283;26.817;;;;;;
84733;SPS30;74957;48.082;17.260;2023-12-20T09:41:05;42.441;;37.726;31.487;;;;;;
84733;SPS30;74957;48.082;17.260;2023-12-20T09:46:02;41.997;;37.331;30.572;;;;;;
84733;SPS30;74957;48.082;17.260;2023-12-20T09:51:05;41.857;;37.207;30.621;;;;;;
84733;SPS30;74957;48.082;17.260;2023-12-20T09:56:04;38.553;;34.27;29.417;;;;;;
84733;SPS30;74957;48.082;17.260;2023-12-20T10:01:04;44.532;;39.584;34.038;;;;;;
84733;SPS30;74957;48.082;17.260;2023-12-20T10:06:08;47.106;;41.872;35.459;;;;;;
84733;SPS30;74957;48.082;17.260;2023-12-20T10:11:03;43.877;;39.002;34.496;;;;;;
84733;SPS30;74957;48.082;17.260;2023-12-20T10:16:03;42.285;;37.587;28.574;;;;;;
84733;SPS30;74957;48.082;17.260;2023-12-20T10:21:04;33.25;;29.556;25.397;;;;;;
84733;SPS30;74957;48.082;17.260;2023-12-20T10:26:03;29.502;;26.224;22.411;;;;;;
84733;SPS30;74957;48.082;17.260;2023-12-20T10:31:04;21.513;;19.123;15.31;;;;;;
84733;SPS30;74957;48.082;17.260;2023-12-20T10:36:03;5.43;;4.827;4.308;;;;;;
84733;SPS30;74957;48.082;17.260;2023-12-20T10:41:02;4.061;;3.61;3.61;;;;;;
84733;SPS30;74957;48.082;17.260;2023-12-20T10:46:03;3.844;;3.417;2.551;;;;;;
84733;SPS30;74957;48.082;17.260;2023-12-20T10:51:04;4.115;;3.658;3.658;;;;;;
84733;SPS30;74957;48.082;17.260;2023-12-20T10:56:04;5.848;;5.199;5.199;;;;;;
84733;SPS30;74957;48.082;17.260;2023-12-20T11:01:04;7.429;;6.604;5.391;;;;;;
84733;SPS30;74957;48.082;17.260;2023-12-20T11:06:02;3.222;;2.864;2.864;;;;;;
84733;SPS30;74957;48.082;17.260;2023-12-20T11:11:07;3.448;;3.065;2.719;;;;;;
84733;SPS30;74957;48.082;17.260;2023-12-20T11:16:03;3.335;;2.965;2.792;;;;;;
84733;SPS30;74957;48.082;17.260;2023-12-20T11:21:04;5.338;;4.745;3.706;;;;;;
84733;SPS30;74957;48.082;17.260;2023-12-20T11:26:02;6.367;;5.66;4.621;;;;;;
84733;SPS30;74957;48.082;17.260;2023-12-20T11:31:04;8.182;;7.273;5.367;;;;;;
84733;SPS30;74957;48.082;17.260;2023-12-20T11:36:14;14.682;;13.051;11.145;;;;;;
84733;SPS30;74957;48.082;17.260;2023-12-20T11:41:08;5.842;;5.193;4.5;;;;;;
84733;SPS30;74957;48.082;17.260;2023-12-20T11:46:10;4.298;;3.821;3.128;;;;;;
84733;SPS30;74957;48.082;17.260;2023-12-20T11:51:11;4.163;;3.701;3.008;;;;;;
84733;SPS30;74957;48.082;17.260;2023-12-20T11:56:09;3.064;;2.724;2.551;;;;;;
84733;SPS30;74957;48.082;17.260;2023-12-20T12:01:11;6.454;;5.737;5.391;;;;;;
84733;SPS30;74957;48.082;17.260;2023-12-20T12:06:11;9.546;;8.486;7.1;;;;;;
84733;SPS30;74957;48.082;17.260;2023-12-20T12:11:10;6.286;;5.588;4.549;;;;;;
84733;SPS30;74957;48.082;17.260;2023-12-20T12:16:12;5.637;;5.011;3.972;;;;;;
84733;SPS30;74957;48.082;17.260;2023-12-20T12:21:18;5.816;;5.17;4.477;;;;;;
84733;SPS30;74957;48.082;17.260;2023-12-20T12:26:10;4.419;;3.928;3.755;;;;;;
84733;SPS30;74957;48.082;17.260;2023-12-20T12:31:14;5.274;;4.688;3.995;;;;;;
84733;SPS30;74957;48.082;17.260;2023-12-20T12:36:13;3.872;;3.442;3.442;;;;;;
84733;SPS30;74957;48.082;17.260;2023-12-20T12:41:12;4.684;;4.164;4.164;;;;;;
84733;SPS30;74957;48.082;17.260;2023-12-20T12:46:11;7.639;;6.791;5.752;;;;;;
84733;SPS30;74957;48.082;17.260;2023-12-20T12:51:11;5.556;;4.939;4.766;;;;;;
84733;SPS30;74957;48.082;17.260;2023-12-20T12:56:12;9.374;;8.333;8.16;;;;;;
84733;SPS30;74957;48.082;17.260;2023-12-20T13:01:11;6.39;;5.68;5.68;;;;;;
84733;SPS30;74957;48.082;17.260;2023-12-20T13:06:10;6.743;;5.994;5.994;;;;;;
84733;SPS30;74957;48.082;17.260;2023-12-20T13:11:12;7.96;;7.076;6.21;;;;;;
84733;SPS30;74957;48.082;17.260;2023-12-20T13:16:11;4.228;;3.759;3.586;;;;;;
84733;SPS30;74957;48.082;17.260;2023-12-20T13:21:03;6.178;;5.492;5.319;;;;;;
84733;SPS30;74957;48.082;17.260;2023-12-20T13:26:08;5.41;;4.809;4.116;;;;;;
84733;SPS30;74957;48.082;17.260;2023-12-20T13:31:03;7.375;;6.556;6.21;;;;;;
84733;SPS30;74957;48.082;17.260;2023-12-20T13:36:04;4.488;;3.99;3.297;;;;;;
84733;SPS30;74957;48.082;17.260;2023-12-20T13:41:04;5.252;;4.669;3.803;;;;;;
84733;SPS30;74957;48.082;17.260;2023-12-20T13:46:04;5.641;;5.015;4.669;;;;;;
84733;SPS30;74957;48.082;17.260;2023-12-20T13:51:03;10.528;;9.359;8.666;;;;;;
84733;SPS30;74957;48.082;17.260;2023-12-20T13:56:03;6.037;;5.367;5.367;;;;;;
84733;SPS30;74957;48.082;17.260;2023-12-20T14:01:08;5.674;;5.044;4.525;;;;;;
84733;SPS30;74957;48.082;17.260;2023-12-20T14:06:04;4.201;;3.735;3.562;;;;;;
84733;SPS30;74957;48.082;17.260;2023-12-20T14:11:05;5.722;;5.087;4.741;;;;;;
84733;SPS30;74957;48.082;17.260;2023-12-20T14:16:03;1.921;;1.708;1.708;;;;;;
84733;SPS30;74957;48.082;17.260;2023-12-20T14:21:08;3.01;;2.676;2.503;;;;;;
84733;SPS30;74957;48.082;17.260;2023-12-20T14:26:04;4.255;;3.783;3.61;;;;;;
84733;SPS30;74957;48.082;17.260;2023-12-20T14:31:07;2.734;;2.431;2.431;;;;;;
84733;SPS30;74957;48.082;17.260;2023-12-20T14:36:03;3.53;;3.138;2.792;;;;;;
84733;SPS30;74957;48.082;17.260;2023-12-20T14:41:03;3.876;;3.446;3.273;;;;;;
84733;SPS30;74957;48.082;17.260;2023-12-20T14:46:00;4.363;;3.879;3.706;;;;;;
84733;SPS30;74957;48.082;17.260;2023-12-20T14:51:02;4.071;;3.619;3.273;;;;;;
84733;SPS30;74957;48.082;17.260;2023-12-20T14:56:03;2.55;;2.267;2.094;;;;;;
84733;SPS30;74957;48.082;17.260;2023-12-20T15:01:02;3.307;;2.94;2.767;;;;;;
84733;SPS30;74957;48.082;17.260;2023-12-20T15:06:04;4.862;;4.322;3.803;;;;;;
84733;SPS30;74957;48.082;17.260;2023-12-20T15:11:02;6.016;;5.348;5.175;;;;;;
84733;SPS30;74957;48.082;17.260;2023-12-20T15:16:04;2.706;;2.406;2.406;;;;;;
84733;SPS30;74957;48.082;17.260;2023-12-20T15:21:01;3.561;;3.166;2.647;;;;;;
84733;SPS30;74957;48.082;17.260;2023-12-20T15:25:59;2.084;;1.853;1.853;;;;;;
84733;SPS30;74957;48.082;17.260;2023-12-20T15:31:01;2.225;;1.978;1.805;;;;;;
84733;SPS30;74957;48.082;17.260;2023-12-20T15:35:59;2.219;;1.973;1.973;;;;;;
84733;SPS30;74957;48.082;17.260;2023-12-20T15:41:01;1.244;;1.106;1.106;;;;;;
84733;SPS30;74957;48.082;17.260;2023-12-20T15:46:01;2.571;;2.286;2.286;;;;;;
84733;SPS30;74957;48.082;17.260;2023-12-20T15:51:05;2.274;;2.022;2.022;;;;;;
84733;SPS30;74957;48.082;17.260;2023-12-20T15:56:06;3.741;;3.326;3.153;;;;;;
84733;SPS30;74957;48.082;17.260;2023-12-20T16:01:07;7.467;;6.638;5.945;;;;;;
84733;SPS30;74957;48.082;17.260;2023-12-20T16:06:06;9.103;;8.092;6.186;;;;;;
84733;SPS30;74957;48.082;17.260;2023-12-20T16:11:04;4.369;;3.884;3.538;;;;;;
84733;SPS30;74957;48.082;17.260;2023-12-20T16:16:07;3.074;;2.733;2.214;;;;;;
84733;SPS30;74957;48.082;17.260;2023-12-20T16:21:08;2.923;;2.599;2.599;;;;;;
84733;SPS30;74957;48.082;17.260;2023-12-20T16:26:04;2.896;;2.575;2.575;;;;;;
84733;SPS30;74957;48.082;17.260;2023-12-20T16:31:04;1.921;;1.708;1.708;;;;;;
84733;SPS30;74957;48.082;17.260;2023-12-20T16:36:04;3.193;;2.839;2.839;;;;;;
84733;SPS30;74957;48.082;17.260;2023-12-20T16:41:07;7.239;;6.435;6.089;;;;;;
84733;SPS30;74957;48.082;17.260;2023-12-20T16:46:04;6.454;;5.737;5.391;;;;;;
84733;SPS30;74957;48.082;17.260;2023-12-20T16:50:58;5.614;;4.991;4.645;;;;;;
84733;SPS30;74957;48.082;17.260;2023-12-20T16:56:04;3.384;;3.008;3.008;;;;;;
84733;SPS30;74957;48.082;17.260;2023-12-20T17:01:08;2.246;;1.997;1.997;;;;;;
84733;SPS30;74957;48.082;17.260;2023-12-20T17:06:07;1.926;;1.712;1.539;;;;;;
84733;SPS30;74957;48.082;17.260;2023-12-20T17:11:06;4.017;;3.571;3.225;;;;;;
84733;SPS30;74957;48.082;17.260;2023-12-20T17:16:06;3.307;;2.94;2.767;;;;;;
84733;SPS30;74957;48.082;17.260;2023-12-20T17:21:06;6.394;;5.684;3.778;;;;;;
84733;SPS30;74957;48.082;17.260;2023-12-20T17:26:06;8.025;;7.134;6.788;;;;;;
84733;SPS30;74957;48.082;17.260;2023-12-20T17:31:06;5.041;;4.481;4.308;;;;;;
84733;SPS30;74957;48.082;17.260;2023-12-20T17:36:06;4.554;;4.048;3.875;;;;;;
84733;SPS30;74957;48.082;17.260;2023-12-20T17:41:08;5.176;;4.601;4.428;;;;;;
84733;SPS30;74957;48.082;17.260;2023-12-20T17:46:07;7.45;;6.623;4.717;;;;;;
84733;SPS30;74957;48.082;17.260;2023-12-20T17:51:07;2.571;;2.286;2.286;;;;;;
84733;SPS30;74957;48.082;17.260;2023-12-20T17:55:59;5.545;;4.929;4.236;;;;;;
84733;SPS30;74957;48.082;17.260;2023-12-20T18:00:59;3.844;;3.417;3.417;;;;;;
84733;SPS30;74957;48.082;17.260;2023-12-20T18:05:59;6.114;;5.435;4.742;;;;;;
84733;SPS30;74957;48.082;17.260;2023-12-20T18:10:59;5.1;;4.534;4.188;;;;;;
84733;SPS30;74957;48.082;17.260;2023-12-20T18:16:02;8.517;;7.571;7.052;;;;;;
84733;SPS30;74957;48.082;17.260;2023-12-20T18:21:00;7.108;;6.319;5.8;;;;;;
84733;SPS30;74957;48.082;17.260;2023-12-20T18:26:02;6.292;;5.593;5.247;;;;;;
84733;SPS30;74957;48.082;17.260;2023-12-20T18:30:59;7.657;;6.807;6.114;;;;;;
84733;SPS30;74957;48.082;17.260;2023-12-20T18:35:59;6.757;;6.007;5.488;;;;;;
84733;SPS30;74957;48.082;17.260;2023-12-20T18:41:00;8.815;;7.836;7.317;;;;;;
84733;SPS30;74957;48.082;17.260;2023-12-20T18:45:59;7.787;;6.922;6.403;;;;;;
84733;SPS30;74957;48.082;17.260;2023-12-20T18:51:02;6.076;;5.401;5.055;;;;;;
84733;SPS30;74957;48.082;17.260;2023-12-20T18:56:03;4.007;;3.562;3.562;;;;;;
84733;SPS30;74957;48.082;17.260;2023-12-20T19:00:59;4.272;;3.798;3.105;;;;;;
84733;SPS30;74957;48.082;17.260;2023-12-20T19:05:59;5.036;;4.477;4.477;;;;;;
84733;SPS30;74957;48.082;17.260;2023-12-20T19:11:00;5.252;;4.669;4.669;;;;;;
84733;SPS30;74957;48.082;17.260;2023-12-20T19:16:00;3.362;;2.989;2.816;;;;;;
84733;SPS30;74957;48.082;17.260;2023-12-20T19:21:01;3.692;;3.282;2.936;;;;;;
84733;SPS30;74957;48.082;17.260;2023-12-20T19:26:00;4.001;;3.557;2.864;;;;;;
84733;SPS30;74957;48.082;17.260;2023-12-20T19:30:59;5.901;;5.246;4.38;;;;;;
84733;SPS30;74957;48.082;17.260;2023-12-20T19:36:04;1.434;;1.275;1.275;;;;;;
84733;SPS30;74957;48.082;17.260;2023-12-20T19:41:03;3.118;;2.772;2.599;;;;;;
84733;SPS30;74957;48.082;17.260;2023-12-20T19:45:59;1.137;;1.011;1.011;;;;;;
84733;SPS30;74957;48.082;17.260;2023-12-20T19:51:01;1.845;;1.64;1.467;;;;;;
84733;SPS30;74957;48.082;17.260;2023-12-20T19:55:59;3.357;;2.984;2.984;;;;;;
84733;SPS30;74957;48.082;17.260;2023-12-20T20:01:01;2.55;;2.267;2.094;;;;;;
84733;SPS30;74957;48.082;17.260;2023-12-20T20:06:06;1.137;;1.011;1.011;;;;;;
84733;SPS30;74957;48.082;17.260;2023-12-20T20:11:07;0.947;;0.842;0.842;;;;;;
84733;SPS30;74957;48.082;17.260;2023-12-20T20:16:07;1.299;;1.155;1.155;;;;;;
84733;SPS30;74957;48.082;17.260;2023-12-20T20:21:07;1.981;;1.761;1.588;;;;;;
84733;SPS30;74957;48.082;17.260;2023-12-20T20:26:06;2.734;;2.431;2.431;;;;;;
84733;SPS30;74957;48.082;17.260;2023-12-20T20:31:06;2.55;;2.267;2.094;;;;;;
84733;SPS30;74957;48.082;17.260;2023-12-20T20:36:06;2.445;;2.174;1.828;;;;;;
84733;SPS30;74957;48.082;17.260;2023-12-20T20:41:08;1.082;;0.962;0.962;;;;;;
84733;SPS30;74957;48.082;17.260;2023-12-20T20:46:06;1.921;;1.708;1.708;;;;;;
84733;SPS30;74957;48.082;17.260;2023-12-20T20:51:07;3.751;;3.335;2.816;;;;;;
84733;SPS30;74957;48.082;17.260;2023-12-20T20:56:06;3.135;;2.787;2.094;;;;;;
84733;SPS30;74957;48.082;17.260;2023-12-20T21:01:07;2.604;;2.315;2.142;;;;;;
84733;SPS30;74957;48.082;17.260;2023-12-20T21:06:07;1.819;;1.617;1.444;;;;;;
84733;SPS30;74957;48.082;17.260;2023-12-20T21:11:06;0.812;;0.722;0.722;;;;;;
84733;SPS30;74957;48.082;17.260;2023-12-20T21:16:06;2.246;;1.997;1.997;;;;;;
84733;SPS30;74957;48.082;17.260;2023-12-20T21:21:06;1.731;;1.539;1.539;;;;;;
84733;SPS30;74957;48.082;17.260;2023-12-20T21:26:06;1.791;;1.592;1.419;;;;;;
84733;SPS30;74957;48.082;17.260;2023-12-20T21:31:06;3.882;;3.451;3.105;;;;;;
84733;SPS30;74957;48.082;17.260;2023-12-20T21:36:03;2.604;;2.315;2.142;;;;;;
84733;SPS30;74957;48.082;17.260;2023-12-20T21:41:07;2.445;;2.174;1.828;;;;;;
84733;SPS30;74957;48.082;17.260;2023-12-20T21:46:06;4.494;;3.995;3.995;;;;;;
84733;SPS30;74957;48.082;17.260;2023-12-20T21:51:00;9.571;;2.748;2.575;;;;;;
84733;SPS30;74957;48.082;17.260;2023-12-20T21:55:59;3.307;;2.94;2.767;;;;;;
84733;SPS30;74957;48.082;17.260;2023-12-20T22:01:00;2.002;;1.78;1.78;;;;;;
84733;SPS30;74957;48.082;17.260;2023-12-20T22:06:02;1.85;;1.645;1.299;;;;;;
84733;SPS30;74957;48.082;17.260;2023-12-20T22:11:00;2.274;;2.022;2.022;;;;;;
84733;SPS30;74957;48.082;17.260;2023-12-20T22:16:03;2.761;;2.455;2.455;;;;;;
84733;SPS30;74957;48.082;17.260;2023-12-20T22:21:00;3.135;;2.787;2.094;;;;;;
84733;SPS30;74957;48.082;17.260;2023-12-20T22:26:00;3.514;;3.124;2.431;;;;;;
84733;SPS30;74957;48.082;17.260;2023-12-20T22:31:02;3.741;;3.326;3.153;;;;;;
84733;SPS30;74957;48.082;17.260;2023-12-20T22:36:01;3.615;;3.214;2.695;;;;;;
84733;SPS30;74957;48.082;17.260;2023-12-20T22:41:01;3.253;;2.892;2.719;;;;;;
84733;SPS30;74957;48.082;17.260;2023-12-20T22:46:01;2.712;;2.411;2.238;;;;;;
84733;SPS30;74957;48.082;17.260;2023-12-20T22:51:02;3.01;;2.676;2.503;;;;;;
84733;SPS30;74957;48.082;17.260;2023-12-20T22:55:59;1.921;;1.708;1.708;;;;;;
84733;SPS30;74957;48.082;17.260;2023-12-20T23:01:25;3.493;;3.105;3.105;;;;;;
84733;SPS30;74957;48.082;17.260;2023-12-20T23:06:01;2.522;;2.242;2.069;;;;;;
84733;SPS30;74957;48.082;17.260;2023-12-20T23:11:01;3.141;;2.792;2.792;;;;;;
84733;SPS30;74957;48.082;17.260;2023-12-20T23:16:00;2.77;;2.463;2.117;;;;;;
84733;SPS30;74957;48.082;17.260;2023-12-20T23:20:59;3.465;;3.08;3.08;;;;;;
84733;SPS30;74957;48.082;17.260;2023-12-20T23:26:00;1.109;;0.986;0.986;;;;;;
84733;SPS30;74957;48.082;17.260;2023-12-20T23:31:02;1.981;;1.761;1.588;;;;;;
84733;SPS30;74957;48.082;17.260;2023-12-20T23:35:58;1.434;;1.275;1.275;;;;;;
84733;SPS30;74957;48.082;17.260;2023-12-20T23:41:00;1.629;;1.448;1.275;;;;;;
84733;SPS30;74957;48.082;17.260;2023-12-20T23:45:59;1.498;;1.332;0.986;;;;;;
84733;SPS30;74957;48.082;17.260;2023-12-20T23:51:01;1.819;;1.617;1.444;;;;;;
84733;SPS30;74957;48.082;17.260;2023-12-20T23:56:01;3.655;;3.249;3.249;;;;;;
